To NAV CANADA Home Page Login to a new session Search on AWWS site Feedback and Comments Disclaimer Vers la page française équivalente Tips FAQ What's new on the site To the Forecasts and Observations / NOTAM section To "File a Flight Plan" website Publications and other links Update of the User's profile FIC Telephone Numbers My Weather Data Folder Route Weather Data Regional Weather Data Local Weather Data To the Forecasts and Observations / NOTAM section
Request Generated 12/04/2016 at 22:17:42 UTC . Weather information available at that time is displayed.

METAR/TAF

FREDERICTON INTL/NB    (show WxCam)

METAR CYFC 042200Z AUTO 30004KT 9SM CLR M04/M07 A3009 RMK SLP194=
METAR CYFC 042100Z AUTO 31006KT 9SM SCT026 M03/M07 A3009 RMK SLP191=
METAR CYFC 042000Z AUTO 32010G17KT 9SM BKN028 M02/M07 A3007 RMK
SLP185=

TAF CYFC 041741Z 0418/0506 31012KT P6SM OVC020 TEMPO 0418/0421 BKN030
FM042100 32010KT P6SM FEW020 TEMPO 0421/0506 BKN020
RMK FCST BASED ON AUTO OBS. NXT FCST BY 050000Z=
Your time UTC time
Weather data provided by Environment Canada and NAV CANADA